sensor_id;sensor_type;location;lat;lon;timestamp;temperature;humidity
6672;DHT22;3372;48.690;12.362;2022-08-19T00:01:34;23.40;35.50
6672;DHT22;3372;48.690;12.362;2022-08-19T00:04:03;23.50;35.50
6672;DHT22;3372;48.690;12.362;2022-08-19T00:06:30;23.50;34.60
6672;DHT22;3372;48.690;12.362;2022-08-19T00:08:57;23.50;35.30
6672;DHT22;3372;48.690;12.362;2022-08-19T00:11:23;23.50;35.10
6672;DHT22;3372;48.690;12.362;2022-08-19T00:13:49;23.40;35.90
6672;DHT22;3372;48.690;12.362;2022-08-19T00:16:18;23.40;36.00
6672;DHT22;3372;48.690;12.362;2022-08-19T00:18:46;23.40;35.30
6672;DHT22;3372;48.690;12.362;2022-08-19T00:21:12;23.40;37.50
6672;DHT22;3372;48.690;12.362;2022-08-19T00:23:37;23.40;36.60
6672;DHT22;3372;48.690;12.362;2022-08-19T00:26:04;23.40;36.20
6672;DHT22;3372;48.690;12.362;2022-08-19T00:28:30;23.40;35.30
6672;DHT22;3372;48.690;12.362;2022-08-19T00:30:56;23.40;37.40
6672;DHT22;3372;48.690;12.362;2022-08-19T00:33:21;23.40;35.80
6672;DHT22;3372;48.690;12.362;2022-08-19T00:35:47;23.50;35.90
6672;DHT22;3372;48.690;12.362;2022-08-19T00:38:13;23.50;35.30
6672;DHT22;3372;48.690;12.362;2022-08-19T00:40:39;23.40;35.80
6672;DHT22;3372;48.690;12.362;2022-08-19T00:43:12;23.40;36.00
6672;DHT22;3372;48.690;12.362;2022-08-19T00:45:39;23.20;37.70
6672;DHT22;3372;48.690;12.362;2022-08-19T00:48:07;23.20;37.00
6672;DHT22;3372;48.690;12.362;2022-08-19T00:50:34;23.30;36.20
6672;DHT22;3372;48.690;12.362;2022-08-19T00:53:00;23.30;36.00
6672;DHT22;3372;48.690;12.362;2022-08-19T00:55:30;23.30;35.70
6672;DHT22;3372;48.690;12.362;2022-08-19T00:58:04;23.40;35.90
6672;DHT22;3372;48.690;12.362;2022-08-19T01:00:32;23.40;36.70
6672;DHT22;3372;48.690;12.362;2022-08-19T01:03:02;23.20;37.50
6672;DHT22;3372;48.690;12.362;2022-08-19T01:05:29;23.30;36.00
6672;DHT22;3372;48.690;12.362;2022-08-19T01:07:56;23.30;37.20
6672;DHT22;3372;48.690;12.362;2022-08-19T01:10:27;23.30;35.50
6672;DHT22;3372;48.690;12.362;2022-08-19T01:12:55;23.40;36.80
6672;DHT22;3372;48.690;12.362;2022-08-19T01:15:26;23.20;37.50
6672;DHT22;3372;48.690;12.362;2022-08-19T01:17:53;23.20;37.50
6672;DHT22;3372;48.690;12.362;2022-08-19T01:20:22;23.30;36.10
6672;DHT22;3372;48.690;12.362;2022-08-19T01:22:51;23.10;37.40
6672;DHT22;3372;48.690;12.362;2022-08-19T01:25:22;23.20;36.80
6672;DHT22;3372;48.690;12.362;2022-08-19T01:27:49;23.00;38.30
6672;DHT22;3372;48.690;12.362;2022-08-19T01:30:19;23.00;39.00
6672;DHT22;3372;48.690;12.362;2022-08-19T01:32:46;23.00;37.40
6672;DHT22;3372;48.690;12.362;2022-08-19T01:35:13;22.90;39.60
6672;DHT22;3372;48.690;12.362;2022-08-19T01:38:04;23.10;37.20
6672;DHT22;3372;48.690;12.362;2022-08-19T01:40:35;23.10;38.80
6672;DHT22;3372;48.690;12.362;2022-08-19T01:43:02;22.90;38.40
6672;DHT22;3372;48.690;12.362;2022-08-19T01:45:30;23.00;38.50
6672;DHT22;3372;48.690;12.362;2022-08-19T01:47:57;23.10;37.00
6672;DHT22;3372;48.690;12.362;2022-08-19T01:50:23;23.10;37.70
6672;DHT22;3372;48.690;12.362;2022-08-19T01:52:49;23.10;38.60
6672;DHT22;3372;48.690;12.362;2022-08-19T01:55:18;23.10;39.00
6672;DHT22;3372;48.690;12.362;2022-08-19T01:57:48;22.90;38.80
6672;DHT22;3372;48.690;12.362;2022-08-19T02:00:17;23.10;39.30
6672;DHT22;3372;48.690;12.362;2022-08-19T02:02:44;23.10;38.30
6672;DHT22;3372;48.690;12.362;2022-08-19T02:05:11;23.10;37.20
6672;DHT22;3372;48.690;12.362;2022-08-19T02:07:37;23.20;37.30
6672;DHT22;3372;48.690;12.362;2022-08-19T02:10:09;23.20;37.10
6672;DHT22;3372;48.690;12.362;2022-08-19T02:12:36;23.00;38.40
6672;DHT22;3372;48.690;12.362;2022-08-19T02:15:03;23.10;37.70
6672;DHT22;3372;48.690;12.362;2022-08-19T02:17:29;23.10;37.80
6672;DHT22;3372;48.690;12.362;2022-08-19T02:19:56;23.20;37.10
6672;DHT22;3372;48.690;12.362;2022-08-19T02:22:23;23.20;37.40
6672;DHT22;3372;48.690;12.362;2022-08-19T02:24:49;23.20;37.40
6672;DHT22;3372;48.690;12.362;2022-08-19T02:27:15;23.20;37.70
6672;DHT22;3372;48.690;12.362;2022-08-19T02:29:40;23.20;36.70
6672;DHT22;3372;48.690;12.362;2022-08-19T02:32:06;23.20;36.80
6672;DHT22;3372;48.690;12.362;2022-08-19T02:34:33;23.30;37.00
6672;DHT22;3372;48.690;12.362;2022-08-19T02:36:58;23.30;36.30
6672;DHT22;3372;48.690;12.362;2022-08-19T02:39:24;23.30;35.80
6672;DHT22;3372;48.690;12.362;2022-08-19T02:41:50;23.30;35.70
6672;DHT22;3372;48.690;12.362;2022-08-19T02:44:17;23.30;35.90
6672;DHT22;3372;48.690;12.362;2022-08-19T02:46:46;23.30;36.10
6672;DHT22;3372;48.690;12.362;2022-08-19T02:49:12;23.30;36.40
6672;DHT22;3372;48.690;12.362;2022-08-19T02:51:40;23.20;37.30
6672;DHT22;3372;48.690;12.362;2022-08-19T02:54:07;23.20;37.90
6672;DHT22;3372;48.690;12.362;2022-08-19T02:56:38;23.10;38.60
6672;DHT22;3372;48.690;12.362;2022-08-19T02:59:05;23.20;37.10
6672;DHT22;3372;48.690;12.362;2022-08-19T03:01:35;23.20;36.50
6672;DHT22;3372;48.690;12.362;2022-08-19T03:04:03;23.20;37.90
6672;DHT22;3372;48.690;12.362;2022-08-19T03:06:29;23.20;37.80
6672;DHT22;3372;48.690;12.362;2022-08-19T03:08:56;23.20;37.00
6672;DHT22;3372;48.690;12.362;2022-08-19T03:11:30;23.20;37.10
6672;DHT22;3372;48.690;12.362;2022-08-19T03:13:57;23.20;38.70
6672;DHT22;3372;48.690;12.362;2022-08-19T03:16:25;23.20;37.60
6672;DHT22;3372;48.690;12.362;2022-08-19T03:18:52;23.20;36.70
6672;DHT22;3372;48.690;12.362;2022-08-19T03:21:24;23.20;36.80
6672;DHT22;3372;48.690;12.362;2022-08-19T03:23:53;23.30;37.10
6672;DHT22;3372;48.690;12.362;2022-08-19T03:26:19;23.20;37.10
6672;DHT22;3372;48.690;12.362;2022-08-19T03:28:45;23.30;36.60
6672;DHT22;3372;48.690;12.362;2022-08-19T03:31:17;23.30;36.40
6672;DHT22;3372;48.690;12.362;2022-08-19T03:33:43;23.30;37.10
6672;DHT22;3372;48.690;12.362;2022-08-19T03:36:10;23.30;36.50
6672;DHT22;3372;48.690;12.362;2022-08-19T03:38:43;23.30;38.00
6672;DHT22;3372;48.690;12.362;2022-08-19T03:41:11;23.10;38.50
6672;DHT22;3372;48.690;12.362;2022-08-19T03:43:39;23.20;37.70
6672;DHT22;3372;48.690;12.362;2022-08-19T03:46:11;23.20;37.30
6672;DHT22;3372;48.690;12.362;2022-08-19T03:48:38;23.30;37.00
6672;DHT22;3372;48.690;12.362;2022-08-19T03:51:05;23.30;36.80
6672;DHT22;3372;48.690;12.362;2022-08-19T03:53:33;23.30;36.80
6672;DHT22;3372;48.690;12.362;2022-08-19T03:56:00;23.30;36.90
6672;DHT22;3372;48.690;12.362;2022-08-19T03:58:27;23.30;36.30
6672;DHT22;3372;48.690;12.362;2022-08-19T04:00:55;23.20;37.50
6672;DHT22;3372;48.690;12.362;2022-08-19T04:03:21;23.30;36.60
6672;DHT22;3372;48.690;12.362;2022-08-19T04:05:47;23.30;36.60
6672;DHT22;3372;48.690;12.362;2022-08-19T04:08:13;23.30;36.30
6672;DHT22;3372;48.690;12.362;2022-08-19T04:10:40;23.30;37.00
6672;DHT22;3372;48.690;12.362;2022-08-19T04:13:07;23.30;36.90
6672;DHT22;3372;48.690;12.362;2022-08-19T04:15:39;23.30;38.00
6672;DHT22;3372;48.690;12.362;2022-08-19T04:18:08;23.30;37.90
6672;DHT22;3372;48.690;12.362;2022-08-19T04:20:46;23.30;37.60
6672;DHT22;3372;48.690;12.362;2022-08-19T04:23:14;23.20;39.60
6672;DHT22;3372;48.690;12.362;2022-08-19T04:25:42;23.30;37.80
6672;DHT22;3372;48.690;12.362;2022-08-19T04:28:09;23.30;38.10
6672;DHT22;3372;48.690;12.362;2022-08-19T04:30:44;23.30;38.50
6672;DHT22;3372;48.690;12.362;2022-08-19T04:33:11;23.30;38.90
6672;DHT22;3372;48.690;12.362;2022-08-19T04:35:42;23.10;39.00
6672;DHT22;3372;48.690;12.362;2022-08-19T04:38:10;23.20;38.60
6672;DHT22;3372;48.690;12.362;2022-08-19T04:40:47;23.10;38.20
6672;DHT22;3372;48.690;12.362;2022-08-19T04:43:32;23.20;38.70
6672;DHT22;3372;48.690;12.362;2022-08-19T04:46:04;23.20;37.70
6672;DHT22;3372;48.690;12.362;2022-08-19T04:48:30;23.20;37.50
6672;DHT22;3372;48.690;12.362;2022-08-19T04:50:57;23.20;37.70
6672;DHT22;3372;48.690;12.362;2022-08-19T04:53:24;23.20;37.70
6672;DHT22;3372;48.690;12.362;2022-08-19T04:55:50;23.20;38.00
6672;DHT22;3372;48.690;12.362;2022-08-19T04:58:16;23.20;38.60
6672;DHT22;3372;48.690;12.362;2022-08-19T05:00:43;23.20;38.00
6672;DHT22;3372;48.690;12.362;2022-08-19T05:03:09;23.20;38.70
6672;DHT22;3372;48.690;12.362;2022-08-19T05:05:41;23.20;38.30
6672;DHT22;3372;48.690;12.362;2022-08-19T05:08:07;23.20;38.70
6672;DHT22;3372;48.690;12.362;2022-08-19T05:10:35;23.20;39.00
6672;DHT22;3372;48.690;12.362;2022-08-19T05:13:01;23.20;38.70
6672;DHT22;3372;48.690;12.362;2022-08-19T05:15:27;23.30;37.70
6672;DHT22;3372;48.690;12.362;2022-08-19T05:17:53;23.30;37.60
6672;DHT22;3372;48.690;12.362;2022-08-19T05:20:38;23.30;37.30
6672;DHT22;3372;48.690;12.362;2022-08-19T05:23:22;23.40;37.50
6672;DHT22;3372;48.690;12.362;2022-08-19T05:25:48;23.40;38.10
6672;DHT22;3372;48.690;12.362;2022-08-19T05:28:13;23.30;38.60
6672;DHT22;3372;48.690;12.362;2022-08-19T05:30:39;23.30;38.40
6672;DHT22;3372;48.690;12.362;2022-08-19T05:33:07;23.30;38.50
6672;DHT22;3372;48.690;12.362;2022-08-19T05:35:38;23.30;38.50
6672;DHT22;3372;48.690;12.362;2022-08-19T05:38:07;23.30;38.00
6672;DHT22;3372;48.690;12.362;2022-08-19T05:40:38;23.30;37.80
6672;DHT22;3372;48.690;12.362;2022-08-19T05:43:05;23.40;38.20
6672;DHT22;3372;48.690;12.362;2022-08-19T05:45:31;23.30;38.20
6672;DHT22;3372;48.690;12.362;2022-08-19T05:47:57;23.30;38.20
6672;DHT22;3372;48.690;12.362;2022-08-19T05:50:24;23.20;39.10
6672;DHT22;3372;48.690;12.362;2022-08-19T05:52:51;23.30;38.50
6672;DHT22;3372;48.690;12.362;2022-08-19T05:55:16;23.30;38.00
6672;DHT22;3372;48.690;12.362;2022-08-19T05:57:42;23.30;38.80
6672;DHT22;3372;48.690;12.362;2022-08-19T06:00:08;23.20;39.30
6672;DHT22;3372;48.690;12.362;2022-08-19T06:02:36;23.30;38.80
6672;DHT22;3372;48.690;12.362;2022-08-19T06:05:03;23.30;38.80
6672;DHT22;3372;48.690;12.362;2022-08-19T06:07:31;23.30;38.80
6672;DHT22;3372;48.690;12.362;2022-08-19T06:09:56;23.30;38.90
6672;DHT22;3372;48.690;12.362;2022-08-19T06:12:22;23.20;38.70
6672;DHT22;3372;48.690;12.362;2022-08-19T06:14:53;23.30;39.10
6672;DHT22;3372;48.690;12.362;2022-08-19T06:17:20;23.30;38.70
6672;DHT22;3372;48.690;12.362;2022-08-19T06:19:50;23.30;38.40
6672;DHT22;3372;48.690;12.362;2022-08-19T06:22:16;23.40;38.40
6672;DHT22;3372;48.690;12.362;2022-08-19T06:24:41;23.40;38.20
6672;DHT22;3372;48.690;12.362;2022-08-19T06:27:07;23.40;38.20
6672;DHT22;3372;48.690;12.362;2022-08-19T06:29:34;23.50;38.30
6672;DHT22;3372;48.690;12.362;2022-08-19T06:32:01;23.50;38.00
6672;DHT22;3372;48.690;12.362;2022-08-19T06:34:29;23.40;38.90
6672;DHT22;3372;48.690;12.362;2022-08-19T06:36:56;23.50;38.60
6672;DHT22;3372;48.690;12.362;2022-08-19T06:39:25;23.30;39.80
6672;DHT22;3372;48.690;12.362;2022-08-19T06:41:54;23.30;39.10
6672;DHT22;3372;48.690;12.362;2022-08-19T06:44:23;23.40;39.20
6672;DHT22;3372;48.690;12.362;2022-08-19T06:46:50;23.30;39.10
6672;DHT22;3372;48.690;12.362;2022-08-19T06:49:17;23.20;39.40
6672;DHT22;3372;48.690;12.362;2022-08-19T06:51:44;23.30;38.80
6672;DHT22;3372;48.690;12.362;2022-08-19T06:54:10;23.50;38.60
6672;DHT22;3372;48.690;12.362;2022-08-19T06:56:37;23.50;38.30
6672;DHT22;3372;48.690;12.362;2022-08-19T06:59:06;23.50;38.90
6672;DHT22;3372;48.690;12.362;2022-08-19T07:01:42;23.30;39.20
6672;DHT22;3372;48.690;12.362;2022-08-19T07:04:13;23.30;38.90
6672;DHT22;3372;48.690;12.362;2022-08-19T07:06:41;23.30;38.80
6672;DHT22;3372;48.690;12.362;2022-08-19T07:09:08;23.40;37.90
6672;DHT22;3372;48.690;12.362;2022-08-19T07:11:34;23.50;38.30
6672;DHT22;3372;48.690;12.362;2022-08-19T07:14:01;23.50;38.30
6672;DHT22;3372;48.690;12.362;2022-08-19T07:16:27;23.50;38.60
6672;DHT22;3372;48.690;12.362;2022-08-19T07:18:53;23.50;38.40
6672;DHT22;3372;48.690;12.362;2022-08-19T07:21:25;23.60;38.30
6672;DHT22;3372;48.690;12.362;2022-08-19T07:23:56;23.60;38.50
6672;DHT22;3372;48.690;12.362;2022-08-19T07:26:27;23.50;39.00
6672;DHT22;3372;48.690;12.362;2022-08-19T07:28:54;23.50;39.00
6672;DHT22;3372;48.690;12.362;2022-08-19T07:31:21;23.40;38.90
6672;DHT22;3372;48.690;12.362;2022-08-19T07:33:49;23.40;38.90
6672;DHT22;3372;48.690;12.362;2022-08-19T07:36:18;23.50;39.60
6672;DHT22;3372;48.690;12.362;2022-08-19T07:38:47;23.50;40.40
6672;DHT22;3372;48.690;12.362;2022-08-19T07:41:16;23.60;39.80
6672;DHT22;3372;48.690;12.362;2022-08-19T07:43:42;23.70;39.20
6672;DHT22;3372;48.690;12.362;2022-08-19T07:46:09;23.60;39.10
6672;DHT22;3372;48.690;12.362;2022-08-19T07:48:36;23.60;39.10
6672;DHT22;3372;48.690;12.362;2022-08-19T07:51:04;23.70;39.50
6672;DHT22;3372;48.690;12.362;2022-08-19T07:53:31;23.80;39.20
6672;DHT22;3372;48.690;12.362;2022-08-19T07:55:59;23.80;38.30
6672;DHT22;3372;48.690;12.362;2022-08-19T07:58:34;23.70;38.60
6672;DHT22;3372;48.690;12.362;2022-08-19T08:01:01;23.70;38.90
6672;DHT22;3372;48.690;12.362;2022-08-19T08:03:27;23.80;38.20
6672;DHT22;3372;48.690;12.362;2022-08-19T08:06:13;23.90;38.20
6672;DHT22;3372;48.690;12.362;2022-08-19T08:08:57;23.80;38.00
6672;DHT22;3372;48.690;12.362;2022-08-19T08:11:45;23.70;38.50
6672;DHT22;3372;48.690;12.362;2022-08-19T08:14:17;23.80;38.00
6672;DHT22;3372;48.690;12.362;2022-08-19T08:16:44;23.60;38.00
6672;DHT22;3372;48.690;12.362;2022-08-19T08:19:12;23.80;37.50
6672;DHT22;3372;48.690;12.362;2022-08-19T08:21:40;23.90;37.90
6672;DHT22;3372;48.690;12.362;2022-08-19T08:24:06;23.90;37.20
6672;DHT22;3372;48.690;12.362;2022-08-19T08:26:32;24.00;37.70
6672;DHT22;3372;48.690;12.362;2022-08-19T08:28:57;24.10;37.40
6672;DHT22;3372;48.690;12.362;2022-08-19T08:31:23;24.20;36.80
6672;DHT22;3372;48.690;12.362;2022-08-19T08:33:49;24.10;36.60
6672;DHT22;3372;48.690;12.362;2022-08-19T08:36:15;24.30;36.80
6672;DHT22;3372;48.690;12.362;2022-08-19T08:38:42;24.50;35.80
6672;DHT22;3372;48.690;12.362;2022-08-19T08:41:34;24.50;35.80
6672;DHT22;3372;48.690;12.362;2022-08-19T08:44:03;24.50;36.60
6672;DHT22;3372;48.690;12.362;2022-08-19T08:46:41;24.40;35.60
6672;DHT22;3372;48.690;12.362;2022-08-19T08:52:06;23.90;37.20
6672;DHT22;3372;48.690;12.362;2022-08-19T08:54:45;23.80;38.40
6672;DHT22;3372;48.690;12.362;2022-08-19T08:57:35;24.00;37.40
6672;DHT22;3372;48.690;12.362;2022-08-19T09:00:05;24.00;37.00
6672;DHT22;3372;48.690;12.362;2022-08-19T09:02:32;24.10;36.30
6672;DHT22;3372;48.690;12.362;2022-08-19T09:04:58;24.10;35.60
6672;DHT22;3372;48.690;12.362;2022-08-19T09:15:46;23.90;37.10
6672;DHT22;3372;48.690;12.362;2022-08-19T09:18:13;24.00;36.10
6672;DHT22;3372;48.690;12.362;2022-08-19T09:20:39;23.90;35.70
6672;DHT22;3372;48.690;12.362;2022-08-19T09:23:05;23.90;35.50
6672;DHT22;3372;48.690;12.362;2022-08-19T09:25:30;24.00;35.40
6672;DHT22;3372;48.690;12.362;2022-08-19T09:28:00;24.00;35.20
6672;DHT22;3372;48.690;12.362;2022-08-19T09:30:40;23.90;35.40
6672;DHT22;3372;48.690;12.362;2022-08-19T09:33:07;23.90;35.50
6672;DHT22;3372;48.690;12.362;2022-08-19T09:35:33;23.90;35.30
6672;DHT22;3372;48.690;12.362;2022-08-19T09:37:59;24.00;35.30
6672;DHT22;3372;48.690;12.362;2022-08-19T09:40:30;23.90;35.10
6672;DHT22;3372;48.690;12.362;2022-08-19T09:42:55;23.80;36.20
6672;DHT22;3372;48.690;12.362;2022-08-19T09:45:22;23.80;35.60
6672;DHT22;3372;48.690;12.362;2022-08-19T09:47:52;23.80;36.00
6672;DHT22;3372;48.690;12.362;2022-08-19T09:50:18;23.80;35.80
6672;DHT22;3372;48.690;12.362;2022-08-19T09:52:45;23.80;36.10
6672;DHT22;3372;48.690;12.362;2022-08-19T09:55:11;23.90;35.90
6672;DHT22;3372;48.690;12.362;2022-08-19T09:57:38;23.90;35.90
6672;DHT22;3372;48.690;12.362;2022-08-19T10:00:07;23.90;35.90
6672;DHT22;3372;48.690;12.362;2022-08-19T10:02:34;23.90;36.50
6672;DHT22;3372;48.690;12.362;2022-08-19T10:05:01;23.90;35.90
6672;DHT22;3372;48.690;12.362;2022-08-19T10:07:45;23.90;36.80
6672;DHT22;3372;48.690;12.362;2022-08-19T10:10:11;23.90;38.60
6672;DHT22;3372;48.690;12.362;2022-08-19T10:12:37;24.00;38.40
6672;DHT22;3372;48.690;12.362;2022-08-19T10:15:05;24.00;38.70
6672;DHT22;3372;48.690;12.362;2022-08-19T10:17:31;24.00;37.90
6672;DHT22;3372;48.690;12.362;2022-08-19T10:20:00;24.00;38.30
6672;DHT22;3372;48.690;12.362;2022-08-19T10:22:28;24.00;39.00
6672;DHT22;3372;48.690;12.362;2022-08-19T10:24:54;24.10;38.80
6672;DHT22;3372;48.690;12.362;2022-08-19T10:27:19;24.00;39.50
6672;DHT22;3372;48.690;12.362;2022-08-19T10:29:45;24.10;39.60
6672;DHT22;3372;48.690;12.362;2022-08-19T10:32:10;24.20;39.60
6672;DHT22;3372;48.690;12.362;2022-08-19T10:34:37;24.20;39.30
6672;DHT22;3372;48.690;12.362;2022-08-19T10:37:04;24.30;38.40
6672;DHT22;3372;48.690;12.362;2022-08-19T10:39:32;24.30;39.80
6672;DHT22;3372;48.690;12.362;2022-08-19T10:41:58;24.30;39.30
6672;DHT22;3372;48.690;12.362;2022-08-19T10:44:24;24.40;39.80
6672;DHT22;3372;48.690;12.362;2022-08-19T10:46:50;24.40;42.30
6672;DHT22;3372;48.690;12.362;2022-08-19T10:49:17;24.60;40.90
6672;DHT22;3372;48.690;12.362;2022-08-19T10:51:44;24.60;39.40
6672;DHT22;3372;48.690;12.362;2022-08-19T10:54:28;24.50;39.10
6672;DHT22;3372;48.690;12.362;2022-08-19T10:57:16;24.40;39.20
6672;DHT22;3372;48.690;12.362;2022-08-19T10:59:41;24.40;39.70
6672;DHT22;3372;48.690;12.362;2022-08-19T11:02:09;24.30;39.80
6672;DHT22;3372;48.690;12.362;2022-08-19T11:04:39;24.40;41.30
6672;DHT22;3372;48.690;12.362;2022-08-19T11:07:05;24.30;40.50
6672;DHT22;3372;48.690;12.362;2022-08-19T11:09:36;24.30;40.80
6672;DHT22;3372;48.690;12.362;2022-08-19T11:12:03;24.20;41.20
6672;DHT22;3372;48.690;12.362;2022-08-19T11:14:28;24.10;42.60
6672;DHT22;3372;48.690;12.362;2022-08-19T11:16:56;24.00;42.40
6672;DHT22;3372;48.690;12.362;2022-08-19T11:19:22;24.10;41.60
6672;DHT22;3372;48.690;12.362;2022-08-19T11:21:50;24.20;42.00
6672;DHT22;3372;48.690;12.362;2022-08-19T11:24:21;24.20;41.80
6672;DHT22;3372;48.690;12.362;2022-08-19T11:26:50;24.10;43.40
6672;DHT22;3372;48.690;12.362;2022-08-19T11:29:18;23.80;43.40
6672;DHT22;3372;48.690;12.362;2022-08-19T11:31:47;23.80;43.00
6672;DHT22;3372;48.690;12.362;2022-08-19T11:34:20;24.00;43.40
6672;DHT22;3372;48.690;12.362;2022-08-19T11:36:47;23.90;44.70
6672;DHT22;3372;48.690;12.362;2022-08-19T11:39:15;24.00;43.00
6672;DHT22;3372;48.690;12.362;2022-08-19T11:41:42;23.60;44.00
6672;DHT22;3372;48.690;12.362;2022-08-19T11:44:07;23.70;45.00
6672;DHT22;3372;48.690;12.362;2022-08-19T11:46:35;23.90;43.80
6672;DHT22;3372;48.690;12.362;2022-08-19T11:49:03;24.00;43.10
6672;DHT22;3372;48.690;12.362;2022-08-19T11:51:30;24.10;43.20
6672;DHT22;3372;48.690;12.362;2022-08-19T11:53:58;24.20;42.90
6672;DHT22;3372;48.690;12.362;2022-08-19T11:56:25;24.30;43.60
6672;DHT22;3372;48.690;12.362;2022-08-19T11:58:52;24.40;43.80
6672;DHT22;3372;48.690;12.362;2022-08-19T12:01:20;24.50;42.90
6672;DHT22;3372;48.690;12.362;2022-08-19T12:03:48;24.50;43.50
6672;DHT22;3372;48.690;12.362;2022-08-19T12:06:20;24.50;43.40
6672;DHT22;3372;48.690;12.362;2022-08-19T12:08:49;24.50;43.90
6672;DHT22;3372;48.690;12.362;2022-08-19T12:11:14;24.50;44.40
6672;DHT22;3372;48.690;12.362;2022-08-19T12:13:40;24.40;44.60
6672;DHT22;3372;48.690;12.362;2022-08-19T12:16:12;24.30;44.00
6672;DHT22;3372;48.690;12.362;2022-08-19T12:18:42;24.50;43.50
6672;DHT22;3372;48.690;12.362;2022-08-19T12:21:12;24.50;43.70
6672;DHT22;3372;48.690;12.362;2022-08-19T12:23:39;24.50;43.70
6672;DHT22;3372;48.690;12.362;2022-08-19T12:26:05;24.40;42.50
6672;DHT22;3372;48.690;12.362;2022-08-19T12:28:31;24.50;42.70
6672;DHT22;3372;48.690;12.362;2022-08-19T12:30:57;24.50;42.40
6672;DHT22;3372;48.690;12.362;2022-08-19T12:33:23;24.70;42.70
6672;DHT22;3372;48.690;12.362;2022-08-19T12:35:51;24.90;41.70
6672;DHT22;3372;48.690;12.362;2022-08-19T12:38:18;24.80;41.90
6672;DHT22;3372;48.690;12.362;2022-08-19T12:40:47;24.80;40.80
6672;DHT22;3372;48.690;12.362;2022-08-19T12:43:14;24.80;40.40
6672;DHT22;3372;48.690;12.362;2022-08-19T12:45:41;24.90;40.20
6672;DHT22;3372;48.690;12.362;2022-08-19T12:48:08;24.90;41.70
6672;DHT22;3372;48.690;12.362;2022-08-19T12:50:33;24.90;40.90
6672;DHT22;3372;48.690;12.362;2022-08-19T12:52:59;24.80;40.60
6672;DHT22;3372;48.690;12.362;2022-08-19T12:55:25;24.80;40.80
6672;DHT22;3372;48.690;12.362;2022-08-19T12:57:51;24.70;40.80
6672;DHT22;3372;48.690;12.362;2022-08-19T13:00:19;24.70;42.20
6672;DHT22;3372;48.690;12.362;2022-08-19T13:02:47;25.00;42.50
6672;DHT22;3372;48.690;12.362;2022-08-19T13:05:22;25.10;41.80
6672;DHT22;3372;48.690;12.362;2022-08-19T13:07:50;25.40;42.00
6672;DHT22;3372;48.690;12.362;2022-08-19T13:10:19;25.40;41.00
6672;DHT22;3372;48.690;12.362;2022-08-19T13:12:48;25.40;41.80
6672;DHT22;3372;48.690;12.362;2022-08-19T13:15:15;25.50;42.10
6672;DHT22;3372;48.690;12.362;2022-08-19T13:17:45;25.50;40.70
6672;DHT22;3372;48.690;12.362;2022-08-19T13:20:11;25.40;40.60
6672;DHT22;3372;48.690;12.362;2022-08-19T13:22:37;25.60;41.90
6672;DHT22;3372;48.690;12.362;2022-08-19T13:25:06;25.80;40.80
6672;DHT22;3372;48.690;12.362;2022-08-19T13:27:32;26.00;40.10
6672;DHT22;3372;48.690;12.362;2022-08-19T13:29:58;25.90;37.00
6672;DHT22;3372;48.690;12.362;2022-08-19T13:32:43;26.00;39.20
6672;DHT22;3372;48.690;12.362;2022-08-19T13:35:27;25.40;37.80
6672;DHT22;3372;48.690;12.362;2022-08-19T13:37:53;25.40;39.20
6672;DHT22;3372;48.690;12.362;2022-08-19T13:40:21;25.10;38.60
6672;DHT22;3372;48.690;12.362;2022-08-19T13:42:50;25.20;39.00
6672;DHT22;3372;48.690;12.362;2022-08-19T13:45:19;25.40;39.20
6672;DHT22;3372;48.690;12.362;2022-08-19T13:47:56;25.60;38.10
6672;DHT22;3372;48.690;12.362;2022-08-19T13:50:25;25.70;37.90
6672;DHT22;3372;48.690;12.362;2022-08-19T13:52:51;25.80;37.20
6672;DHT22;3372;48.690;12.362;2022-08-19T13:55:17;25.80;35.90
6672;DHT22;3372;48.690;12.362;2022-08-19T13:57:42;25.70;34.80
6672;DHT22;3372;48.690;12.362;2022-08-19T14:00:18;25.40;32.90
6672;DHT22;3372;48.690;12.362;2022-08-19T14:02:45;25.50;34.00
6672;DHT22;3372;48.690;12.362;2022-08-19T14:05:13;25.40;33.30
6672;DHT22;3372;48.690;12.362;2022-08-19T14:07:39;25.40;33.20
6672;DHT22;3372;48.690;12.362;2022-08-19T14:10:08;25.40;34.50
6672;DHT22;3372;48.690;12.362;2022-08-19T14:12:34;25.50;34.70
6672;DHT22;3372;48.690;12.362;2022-08-19T14:15:00;25.70;33.90
6672;DHT22;3372;48.690;12.362;2022-08-19T14:17:27;25.60;34.10
6672;DHT22;3372;48.690;12.362;2022-08-19T14:19:58;25.40;33.90
6672;DHT22;3372;48.690;12.362;2022-08-19T14:22:24;25.50;34.40
6672;DHT22;3372;48.690;12.362;2022-08-19T14:24:50;25.50;34.00
6672;DHT22;3372;48.690;12.362;2022-08-19T14:27:15;25.40;34.40
6672;DHT22;3372;48.690;12.362;2022-08-19T14:29:41;25.40;34.70
6672;DHT22;3372;48.690;12.362;2022-08-19T14:32:07;25.50;34.70
6672;DHT22;3372;48.690;12.362;2022-08-19T14:34:32;25.50;34.40
6672;DHT22;3372;48.690;12.362;2022-08-19T14:36:59;25.50;34.50
6672;DHT22;3372;48.690;12.362;2022-08-19T14:39:25;25.50;33.90
6672;DHT22;3372;48.690;12.362;2022-08-19T14:41:50;25.50;34.40
6672;DHT22;3372;48.690;12.362;2022-08-19T14:44:16;25.50;33.80
6672;DHT22;3372;48.690;12.362;2022-08-19T14:46:42;25.50;33.50
6672;DHT22;3372;48.690;12.362;2022-08-19T14:49:07;25.60;33.70
6672;DHT22;3372;48.690;12.362;2022-08-19T14:51:33;25.40;32.90
6672;DHT22;3372;48.690;12.362;2022-08-19T14:53:58;25.40;33.80
6672;DHT22;3372;48.690;12.362;2022-08-19T14:56:27;25.50;33.50
6672;DHT22;3372;48.690;12.362;2022-08-19T14:58:54;25.60;34.10
6672;DHT22;3372;48.690;12.362;2022-08-19T15:01:23;25.40;33.70
6672;DHT22;3372;48.690;12.362;2022-08-19T15:03:50;25.30;34.60
6672;DHT22;3372;48.690;12.362;2022-08-19T15:06:18;25.50;34.80
6672;DHT22;3372;48.690;12.362;2022-08-19T15:08:43;25.20;35.20
6672;DHT22;3372;48.690;12.362;2022-08-19T15:11:13;25.30;34.70
6672;DHT22;3372;48.690;12.362;2022-08-19T15:13:40;25.30;34.80
6672;DHT22;3372;48.690;12.362;2022-08-19T15:16:07;25.30;34.60
6672;DHT22;3372;48.690;12.362;2022-08-19T15:18:33;25.10;34.50
6672;DHT22;3372;48.690;12.362;2022-08-19T15:21:00;24.90;35.40
6672;DHT22;3372;48.690;12.362;2022-08-19T15:23:26;25.10;35.40
6672;DHT22;3372;48.690;12.362;2022-08-19T15:25:52;25.30;34.80
6672;DHT22;3372;48.690;12.362;2022-08-19T15:28:24;25.30;34.60
6672;DHT22;3372;48.690;12.362;2022-08-19T15:30:50;25.40;34.70
6672;DHT22;3372;48.690;12.362;2022-08-19T15:33:16;25.40;33.50
6672;DHT22;3372;48.690;12.362;2022-08-19T15:35:44;25.30;34.60
6672;DHT22;3372;48.690;12.362;2022-08-19T15:38:10;25.20;34.10
6672;DHT22;3372;48.690;12.362;2022-08-19T15:40:38;25.20;34.40
6672;DHT22;3372;48.690;12.362;2022-08-19T15:43:04;25.10;34.60
6672;DHT22;3372;48.690;12.362;2022-08-19T15:45:30;25.10;35.40
6672;DHT22;3372;48.690;12.362;2022-08-19T15:48:00;25.00;34.80
6672;DHT22;3372;48.690;12.362;2022-08-19T15:50:26;25.20;35.40
6672;DHT22;3372;48.690;12.362;2022-08-19T15:52:58;25.30;34.80
6672;DHT22;3372;48.690;12.362;2022-08-19T15:55:33;25.20;35.10
6672;DHT22;3372;48.690;12.362;2022-08-19T15:58:07;25.20;35.40
6672;DHT22;3372;48.690;12.362;2022-08-19T16:00:51;25.30;35.70
6672;DHT22;3372;48.690;12.362;2022-08-19T16:03:35;25.30;35.10